createdAt,value
2023-03-20T00:00:26.670Z,17.15
2023-03-20T00:03:13.407Z,17.92
2023-03-20T00:05:59.297Z,17.38
2023-03-20T00:08:46.194Z,19.98
2023-03-20T00:11:37.205Z,20.65
2023-03-20T00:14:24.830Z,21.17
2023-03-20T00:17:18.237Z,20.10
2023-03-20T00:20:04.650Z,20.33
2023-03-20T00:22:51.266Z,19.70
2023-03-20T00:25:37.948Z,19.92
2023-03-20T00:28:50.321Z,19.35
2023-03-20T00:31:38.398Z,17.52
2023-03-20T00:34:27.376Z,17.10
2023-03-20T00:37:13.599Z,16.17
2023-03-20T00:39:59.736Z,16.27
2023-03-20T00:42:49.237Z,15.57
2023-03-20T00:45:36.323Z,16.15
2023-03-20T00:48:22.548Z,16.00
2023-03-20T00:51:09.702Z,16.13
2023-03-20T00:53:56.016Z,16.98
2023-03-20T00:56:55.086Z,16.48
2023-03-20T00:59:53.592Z,16.45
2023-03-20T01:02:39.757Z,18.05
2023-03-20T01:05:27.470Z,17.33
2023-03-20T01:08:22.501Z,18.33
2023-03-20T01:11:10.363Z,20.85
2023-03-20T01:13:56.288Z,20.55
2023-03-20T01:16:42.942Z,19.90
2023-03-20T01:19:29.357Z,18.55
2023-03-20T01:22:15.726Z,19.23
2023-03-20T01:25:02.707Z,18.17
2023-03-20T01:27:53.777Z,17.77
2023-03-20T01:30:39.973Z,18.52
2023-03-20T01:33:26.663Z,16.80
2023-03-20T01:36:16.130Z,16.38
2023-03-20T01:39:02.564Z,17.52
2023-03-20T01:41:49.050Z,14.55
2023-03-20T01:44:36.546Z,16.17
2023-03-20T01:47:26.116Z,15.32
2023-03-20T01:50:26.592Z,14.48
2023-03-20T01:53:34.531Z,13.52
2023-03-20T01:56:20.991Z,14.00
2023-03-20T01:59:18.609Z,15.23
2023-03-20T02:02:05.898Z,15.60
2023-03-20T02:04:55.658Z,16.05
2023-03-20T02:07:41.813Z,14.18
2023-03-20T02:10:29.508Z,13.85
2023-03-20T02:13:33.007Z,15.25
2023-03-20T02:16:20.138Z,14.98
2023-03-20T02:20:04.264Z,17.25
2023-03-20T02:23:26.071Z,16.25
2023-03-20T02:26:48.216Z,15.82
2023-03-20T02:29:43.102Z,15.35
2023-03-20T02:33:07.256Z,14.82
2023-03-20T02:36:24.509Z,12.23
2023-03-20T02:39:25.904Z,13.77
2023-03-20T02:42:18.772Z,13.70
2023-03-20T02:45:07.855Z,13.88
2023-03-20T02:48:20.532Z,13.30
2023-03-20T02:51:22.491Z,14.77
2023-03-20T02:54:21.533Z,14.18
2023-03-20T03:00:11.906Z,12.63
2023-03-20T03:03:20.994Z,11.40
2023-03-20T03:06:23.933Z,11.00
2023-03-20T03:12:05.572Z,11.77
2023-03-20T03:14:54.885Z,11.88
2023-03-20T03:17:43.289Z,12.15
2023-03-20T03:20:37.768Z,11.88
2023-03-20T03:23:29.569Z,12.65
2023-03-20T03:26:22.796Z,11.33
2023-03-20T03:29:15.871Z,11.98
2023-03-20T03:32:03.622Z,11.90
2023-03-20T03:34:50.279Z,11.15
2023-03-20T03:38:02.085Z,11.35
2023-03-20T03:40:58.824Z,10.57
2023-03-20T03:43:53.676Z,10.93
2023-03-20T03:46:58.232Z,11.23
2023-03-20T03:49:49.553Z,11.25
2023-03-20T03:52:36.678Z,11.13
2023-03-20T03:55:25.397Z,11.38
2023-03-20T03:58:43.239Z,11.85
2023-03-20T04:01:32.497Z,11.60
2023-03-20T04:04:20.567Z,12.32
2023-03-20T04:07:06.864Z,12.57
2023-03-20T04:09:52.591Z,12.77
2023-03-20T04:12:40.852Z,12.88
2023-03-20T04:15:29.369Z,11.95
2023-03-20T04:18:17.335Z,10.52
2023-03-20T04:21:05.303Z,11.55
2023-03-20T04:23:51.991Z,11.20
2023-03-20T04:26:40.535Z,11.02
2023-03-20T04:29:26.925Z,11.02
2023-03-20T04:32:32.989Z,11.40
2023-03-20T04:35:29.396Z,10.63
2023-03-20T04:38:18.396Z,11.85
2023-03-20T04:41:05.636Z,11.15
2023-03-20T04:43:51.976Z,11.82
2023-03-20T04:46:37.858Z,12.50
2023-03-20T04:49:29.569Z,13.73
2023-03-20T04:52:15.818Z,14.88
2023-03-20T04:55:03.676Z,13.05
2023-03-20T04:57:50.340Z,12.68
2023-03-20T05:00:36.321Z,11.23
2023-03-20T05:03:24.057Z,11.15
2023-03-20T05:06:10.694Z,10.23
2023-03-20T05:09:00.931Z,10.85
2023-03-20T05:11:49.370Z,10.30
2023-03-20T05:14:54.937Z,11.80
2023-03-20T05:17:56.696Z,11.63
2023-03-20T05:21:00.083Z,10.95
2023-03-20T05:24:07.528Z,12.02
2023-03-20T05:27:07.875Z,11.45
2023-03-20T05:30:23.182Z,12.50
2023-03-20T05:33:47.382Z,12.13
2023-03-20T05:36:44.995Z,11.20
2023-03-20T05:39:43.642Z,11.77
2023-03-20T05:42:58.852Z,10.55
2023-03-20T05:45:53.845Z,11.88
2023-03-20T05:48:49.408Z,11.88
2023-03-20T05:51:48.782Z,12.57
2023-03-20T05:54:47.571Z,12.07
2023-03-20T05:57:56.766Z,12.98
2023-03-20T06:01:01.146Z,13.32
2023-03-20T06:04:14.727Z,13.82
2023-03-20T06:07:29.799Z,13.50
2023-03-20T06:10:21.119Z,13.48
2023-03-20T06:13:08.859Z,13.32
2023-03-20T06:15:54.480Z,14.48
2023-03-20T06:18:41.938Z,14.40
2023-03-20T06:21:28.316Z,14.68
2023-03-20T06:24:15.035Z,14.43
2023-03-20T06:27:01.764Z,15.07
2023-03-20T06:29:48.037Z,16.67
2023-03-20T06:32:44.369Z,15.13
2023-03-20T06:35:31.671Z,14.32
2023-03-20T06:38:17.794Z,13.70
2023-03-20T06:41:03.903Z,15.18
2023-03-20T06:43:51.150Z,17.08
2023-03-20T06:46:39.094Z,20.27
2023-03-20T06:49:25.801Z,25.20
2023-03-20T06:52:17.317Z,19.77
2023-03-20T06:55:08.381Z,18.13
2023-03-20T06:57:54.074Z,18.60
2023-03-20T07:00:40.057Z,20.42
2023-03-20T07:03:28.541Z,20.77
2023-03-20T07:06:18.929Z,22.35
2023-03-20T07:09:05.602Z,23.98
2023-03-20T07:11:51.622Z,21.77
2023-03-20T07:14:37.436Z,21.30
2023-03-20T07:17:27.728Z,18.75
2023-03-20T07:20:14.302Z,17.45
2023-03-20T07:23:00.499Z,17.70
2023-03-20T07:25:49.895Z,16.83
2023-03-20T07:28:38.046Z,15.48
2023-03-20T07:31:32.512Z,16.10
2023-03-20T07:34:31.436Z,15.32
2023-03-20T07:37:19.638Z,15.27
2023-03-20T07:40:16.952Z,13.77
2023-03-20T07:43:29.145Z,13.93
2023-03-20T07:46:44.576Z,13.65
2023-03-20T07:49:30.867Z,14.57
2023-03-20T07:52:17.287Z,14.25
2023-03-20T07:55:03.313Z,13.38
2023-03-20T07:57:49.954Z,14.35
2023-03-20T08:00:37.385Z,13.57
2023-03-20T08:03:23.363Z,13.88
2023-03-20T08:06:10.110Z,17.85
2023-03-20T08:08:56.547Z,19.15
2023-03-20T08:11:42.794Z,22.25
2023-03-20T08:14:29.197Z,19.00
2023-03-20T08:17:18.017Z,16.98
2023-03-20T08:20:07.421Z,18.63
2023-03-20T08:22:53.462Z,17.08
2023-03-20T08:25:39.414Z,17.05
2023-03-20T08:28:44.115Z,18.40
2023-03-20T08:31:32.001Z,25.25
2023-03-20T08:34:18.109Z,18.25
2023-03-20T08:37:05.207Z,17.08
2023-03-20T08:39:51.316Z,19.83
2023-03-20T08:42:37.303Z,17.42
2023-03-20T08:45:26.237Z,20.92
2023-03-20T08:48:12.050Z,15.45
2023-03-20T08:50:58.036Z,14.82
2023-03-20T08:53:43.811Z,14.90
2023-03-20T08:56:29.713Z,16.52
2023-03-20T08:59:15.497Z,24.73
2023-03-20T09:02:01.513Z,21.48
2023-03-20T09:04:47.283Z,20.88
2023-03-20T09:07:33.147Z,15.80
2023-03-20T09:10:19.003Z,16.63
2023-03-20T09:13:23.412Z,13.57
2023-03-20T09:16:12.551Z,14.27
2023-03-20T09:18:59.813Z,13.82
2023-03-20T09:21:46.329Z,17.20
2023-03-20T09:24:33.069Z,13.38
2023-03-20T09:27:19.313Z,11.13
2023-03-20T09:30:09.399Z,11.07
2023-03-20T09:32:55.997Z,11.25
2023-03-20T09:35:43.641Z,14.90
2023-03-20T09:38:29.584Z,16.90
2023-03-20T09:41:26.139Z,11.88
2023-03-20T09:44:29.300Z,11.63
2023-03-20T09:47:28.074Z,12.65
2023-03-20T09:50:37.105Z,12.55
2023-03-20T09:53:37.077Z,10.25
2023-03-20T09:56:27.147Z,17.30
2023-03-20T09:59:15.541Z,16.50
2023-03-20T10:02:08.001Z,13.00
2023-03-20T10:04:55.016Z,14.20
2023-03-20T10:07:41.026Z,18.55
2023-03-20T10:10:48.031Z,15.07
2023-03-20T10:13:53.939Z,12.35
2023-03-20T10:17:05.276Z,17.15
2023-03-20T10:19:59.326Z,16.02
2023-03-20T10:22:48.776Z,13.80
2023-03-20T10:25:39.435Z,13.93
2023-03-20T10:28:36.789Z,11.27
2023-03-20T10:31:45.799Z,12.30
2023-03-20T10:35:13.398Z,11.55
2023-03-20T10:38:22.623Z,10.13
2023-03-20T10:41:15.323Z,9.93
2023-03-20T10:44:02.400Z,9.77
2023-03-20T10:46:52.996Z,8.77
2023-03-20T10:49:55.419Z,10.48
2023-03-20T10:52:41.853Z,10.38
2023-03-20T10:55:35.659Z,9.93
2023-03-20T10:58:24.208Z,8.93
2023-03-20T11:01:10.128Z,7.93
2023-03-20T11:03:56.537Z,8.15
2023-03-20T11:06:49.991Z,7.70
2023-03-20T11:09:36.417Z,8.35
2023-03-20T11:12:22.329Z,8.90
2023-03-20T11:15:27.045Z,9.65
2023-03-20T11:18:16.484Z,11.77
2023-03-20T11:21:03.702Z,8.25
2023-03-20T11:23:50.520Z,8.52
2023-03-20T11:26:38.812Z,9.05
2023-03-20T11:29:30.398Z,8.05
2023-03-20T11:32:27.160Z,8.35
2023-03-20T11:35:19.437Z,9.25
2023-03-20T11:38:17.707Z,8.55
2023-03-20T11:41:05.396Z,9.10
2023-03-20T11:43:51.333Z,11.02
2023-03-20T11:46:37.540Z,10.30
2023-03-20T11:49:30.368Z,12.68
2023-03-20T11:52:21.970Z,9.52
2023-03-20T11:55:24.969Z,9.18
2023-03-20T11:58:15.514Z,8.07
2023-03-20T12:01:02.276Z,6.78
2023-03-20T12:04:11.381Z,7.35
2023-03-20T12:07:05.100Z,7.03
2023-03-20T12:09:53.249Z,5.22
2023-03-20T12:12:47.791Z,6.97
2023-03-20T12:15:37.073Z,7.53
2023-03-20T12:18:27.142Z,6.75
2023-03-20T12:21:21.122Z,5.60
2023-03-20T12:24:28.454Z,6.57
2023-03-20T12:27:23.372Z,6.13
2023-03-20T12:30:15.753Z,5.20
2023-03-20T12:33:10.529Z,5.25
2023-03-20T12:35:58.493Z,6.10
2023-03-20T12:38:46.046Z,6.18
2023-03-20T12:42:04.763Z,5.38
2023-03-20T12:45:12.493Z,5.38
2023-03-20T12:48:19.824Z,5.10
2023-03-20T12:51:24.426Z,5.75
2023-03-20T12:54:22.475Z,5.57
2023-03-20T12:57:28.666Z,5.35
2023-03-20T13:00:32.163Z,6.45
2023-03-20T13:03:28.426Z,6.18
2023-03-20T13:06:21.562Z,5.15
2023-03-20T13:09:20.048Z,5.22
2023-03-20T13:12:35.591Z,5.15
2023-03-20T13:15:42.863Z,6.13
2023-03-20T13:18:49.168Z,5.05
2023-03-20T13:21:43.623Z,6.13
2023-03-20T13:24:33.829Z,5.60
2023-03-20T13:27:34.386Z,5.28
2023-03-20T13:30:50.427Z,5.68
2023-03-20T13:34:12.144Z,5.47
2023-03-20T13:37:19.905Z,4.72
2023-03-20T13:40:39.486Z,6.10
2023-03-20T13:43:35.996Z,5.82
2023-03-20T13:46:28.207Z,5.85
2023-03-20T13:49:37.837Z,5.70
2023-03-20T13:52:45.764Z,5.13
2023-03-20T13:56:01.938Z,6.55
2023-03-20T13:59:39.047Z,7.18
2023-03-20T14:02:31.217Z,6.18
2023-03-20T14:05:23.291Z,6.00
2023-03-20T14:08:38.744Z,5.53
2023-03-20T14:11:24.807Z,5.85
2023-03-20T14:14:31.870Z,5.82
2023-03-20T14:17:25.245Z,4.70
2023-03-20T14:20:16.642Z,3.95
2023-03-20T14:23:03.208Z,3.35
2023-03-20T14:25:49.519Z,3.78
2023-03-20T14:28:53.285Z,4.57
2023-03-20T14:31:42.275Z,3.83
2023-03-20T14:34:47.991Z,4.13
2023-03-20T14:37:39.600Z,5.47
2023-03-20T14:40:29.790Z,5.75
2023-03-20T14:43:52.020Z,6.22
2023-03-20T14:47:02.962Z,4.93
2023-03-20T14:49:53.556Z,6.35
2023-03-20T14:53:01.685Z,4.00
2023-03-20T14:55:55.769Z,4.80
2023-03-20T14:59:02.044Z,5.57
2023-03-20T15:01:53.802Z,6.95
2023-03-20T15:04:41.825Z,12.35
2023-03-20T15:07:30.438Z,13.23
2023-03-20T15:10:19.058Z,8.10
2023-03-20T15:13:07.846Z,7.60
2023-03-20T15:16:05.211Z,11.35
2023-03-20T15:18:52.461Z,8.57
2023-03-20T15:21:40.809Z,8.68
2023-03-20T15:24:28.855Z,8.20
2023-03-20T15:27:14.667Z,7.75
2023-03-20T15:30:01.134Z,7.55
2023-03-20T15:32:48.836Z,9.98
2023-03-20T15:35:35.040Z,9.98
2023-03-20T15:38:21.262Z,8.73
2023-03-20T15:41:08.247Z,9.30
2023-03-20T15:43:54.227Z,10.10
2023-03-20T15:46:41.034Z,15.30
2023-03-20T15:49:27.989Z,10.73
2023-03-20T15:52:22.262Z,11.63
2023-03-20T15:55:14.775Z,12.57
2023-03-20T15:58:02.297Z,12.55
2023-03-20T16:00:48.839Z,12.95
2023-03-20T16:03:38.271Z,13.18
2023-03-20T16:06:25.645Z,16.67
2023-03-20T16:09:15.261Z,16.65
2023-03-20T16:12:03.136Z,16.77
2023-03-20T16:14:50.005Z,16.00
2023-03-20T16:17:36.235Z,15.23
2023-03-20T16:20:22.555Z,19.40
2023-03-20T16:23:09.238Z,16.42
2023-03-20T16:26:01.167Z,14.75
2023-03-20T16:28:58.515Z,14.95
2023-03-20T16:32:06.886Z,12.60
2023-03-20T16:34:56.374Z,14.02
2023-03-20T16:37:44.787Z,13.23
2023-03-20T16:40:35.260Z,13.02
2023-03-20T16:43:29.569Z,13.23
2023-03-20T16:46:23.458Z,13.43
2023-03-20T16:49:44.550Z,17.30
2023-03-20T16:52:33.323Z,17.23
2023-03-20T16:55:24.213Z,18.83
2023-03-20T16:58:16.963Z,17.30
2023-03-20T17:01:15.844Z,17.92
2023-03-20T17:04:35.387Z,19.95
2023-03-20T17:07:28.053Z,18.98
2023-03-20T17:10:16.912Z,20.90
2023-03-20T17:13:02.873Z,18.02
2023-03-20T17:15:48.788Z,18.90
2023-03-20T17:18:35.496Z,19.02
2023-03-20T17:21:21.749Z,20.85
2023-03-20T17:24:08.277Z,24.17
2023-03-20T17:26:58.240Z,20.80
2023-03-20T17:29:45.106Z,22.13
2023-03-20T17:32:32.337Z,21.90
2023-03-20T17:35:18.475Z,21.75
2023-03-20T17:38:04.455Z,20.48
2023-03-20T17:40:51.347Z,22.88
2023-03-20T17:43:37.594Z,25.55
2023-03-20T17:46:28.925Z,24.42
2023-03-20T17:49:16.368Z,28.48
2023-03-20T17:52:02.393Z,30.65
2023-03-20T17:54:48.420Z,33.75
2023-03-20T17:57:37.116Z,35.45
2023-03-20T18:00:24.325Z,34.05
2023-03-20T18:03:11.162Z,27.00
2023-03-20T18:05:57.358Z,18.92
2023-03-20T18:08:43.231Z,17.52
2023-03-20T18:11:29.910Z,20.58
2023-03-20T18:14:18.873Z,17.02
2023-03-20T18:17:05.072Z,16.75
2023-03-20T18:19:50.979Z,19.85
2023-03-20T18:22:36.983Z,18.95
2023-03-20T18:25:25.962Z,16.92
2023-03-20T18:28:22.616Z,17.38
2023-03-20T18:31:08.951Z,16.45
2023-03-20T18:33:55.205Z,24.20
2023-03-20T18:36:41.159Z,21.50
2023-03-20T18:39:27.597Z,21.33
2023-03-20T18:42:13.420Z,21.40
2023-03-20T18:44:59.231Z,21.63
2023-03-20T18:47:45.667Z,19.67
2023-03-20T18:50:37.543Z,20.98
2023-03-20T18:53:24.217Z,17.27
2023-03-20T18:56:25.662Z,17.70
2023-03-20T18:59:12.890Z,18.63
2023-03-20T19:01:58.796Z,20.95
2023-03-20T19:04:44.525Z,20.10
2023-03-20T19:07:30.362Z,19.95
2023-03-20T19:10:25.024Z,21.00
2023-03-20T19:13:17.269Z,23.20
2023-03-20T19:16:03.340Z,23.38
2023-03-20T19:18:52.553Z,26.55
2023-03-20T19:21:38.759Z,26.52
2023-03-20T19:24:25.155Z,28.85
2023-03-20T19:27:17.443Z,29.17
2023-03-20T19:30:05.947Z,29.45
2023-03-20T19:32:52.105Z,21.50
2023-03-20T19:35:58.798Z,17.90
2023-03-20T19:38:43.826Z,16.20
2023-03-20T19:41:32.175Z,16.70
2023-03-20T19:44:19.121Z,15.30
2023-03-20T19:47:05.229Z,15.00
2023-03-20T19:49:51.413Z,17.02
2023-03-20T19:52:37.242Z,22.52
2023-03-20T19:55:25.054Z,17.48
2023-03-20T19:58:11.100Z,21.20
2023-03-20T20:01:11.645Z,22.08
2023-03-20T20:06:47.353Z,18.13
2023-03-20T20:09:33.791Z,13.98
2023-03-20T20:12:19.561Z,11.05
2023-03-20T20:15:07.878Z,11.38
2023-03-20T20:17:54.218Z,10.65
2023-03-20T20:21:24.546Z,10.65
2023-03-20T20:23:48.524Z,11.05
2023-03-20T20:26:39.013Z,11.70
2023-03-20T20:29:27.136Z,11.80
2023-03-20T20:32:13.275Z,10.77
2023-03-20T20:35:40.610Z,15.75
2023-03-20T20:41:12.239Z,12.02
2023-03-20T20:44:15.761Z,13.13
2023-03-20T20:47:02.304Z,16.10
2023-03-20T20:49:48.169Z,17.80
2023-03-20T20:52:35.800Z,17.85
2023-03-20T20:55:24.147Z,16.05
2023-03-20T20:58:11.462Z,14.95
2023-03-20T21:01:01.330Z,14.07
2023-03-20T21:03:47.340Z,14.02
2023-03-20T21:07:03.775Z,14.20
2023-03-20T21:09:40.454Z,14.93
2023-03-20T21:12:36.239Z,16.52
2023-03-20T21:15:26.698Z,15.00
2023-03-20T21:18:12.512Z,15.23
2023-03-20T21:21:10.174Z,14.00
2023-03-20T21:23:56.203Z,14.50
2023-03-20T21:26:42.044Z,12.43
2023-03-20T21:29:31.557Z,11.23
2023-03-20T21:32:20.797Z,11.10
2023-03-20T21:35:08.982Z,10.05
2023-03-20T21:41:08.075Z,9.93
2023-03-20T21:43:54.104Z,10.43
2023-03-20T21:47:09.701Z,11.20
2023-03-20T21:53:28.735Z,11.98
2023-03-20T21:56:40.230Z,11.80
2023-03-20T22:02:23.559Z,11.65
2023-03-20T22:21:22.333Z,12.77
2023-03-20T22:37:01.564Z,9.98
2023-03-20T22:45:37.993Z,10.25
2023-03-20T22:48:28.852Z,10.77
2023-03-20T22:51:14.534Z,10.27
2023-03-20T22:54:00.455Z,10.35
2023-03-20T22:56:46.494Z,10.05
2023-03-20T22:59:32.288Z,10.80
2023-03-20T23:02:18.129Z,9.68
2023-03-20T23:05:04.239Z,10.73
2023-03-20T23:07:50.280Z,11.73
2023-03-20T23:10:38.222Z,10.45
2023-03-20T23:13:24.467Z,10.07
2023-03-20T23:16:10.618Z,10.00
2023-03-20T23:18:56.964Z,9.80
2023-03-20T23:21:43.197Z,8.52
2023-03-20T23:24:29.309Z,10.95
2023-03-20T23:27:15.513Z,11.70
2023-03-20T23:30:01.602Z,10.85
2023-03-20T23:32:47.499Z,10.48
2023-03-20T23:35:33.535Z,11.45
2023-03-20T23:38:19.439Z,12.20
2023-03-20T23:41:06.000Z,11.25
2023-03-20T23:43:52.649Z,11.88
2023-03-20T23:46:38.523Z,10.68
2023-03-20T23:49:24.634Z,10.48
2023-03-20T23:52:10.381Z,9.90
2023-03-20T23:54:56.296Z,10.70
2023-03-20T23:57:42.387Z,8.98
